createdAt,value
2018-10-05T00:01:11.370Z,8.64
2018-10-05T00:03:40.486Z,8.70
2018-10-05T00:06:09.748Z,8.74
2018-10-05T00:08:38.980Z,8.75
2018-10-05T00:11:08.301Z,8.73
2018-10-05T00:13:37.409Z,8.69
2018-10-05T00:16:06.536Z,8.62
2018-10-05T00:18:35.691Z,8.49
2018-10-05T00:21:04.770Z,8.52
2018-10-05T00:23:33.688Z,8.55
2018-10-05T00:26:02.888Z,8.48
2018-10-05T00:28:31.980Z,8.45
2018-10-05T00:31:01.417Z,8.45
2018-10-05T00:33:30.724Z,8.47
2018-10-05T00:35:59.914Z,8.42
2018-10-05T00:38:29.035Z,8.42
2018-10-05T00:40:59.886Z,8.39
2018-10-05T00:43:30.091Z,8.22
2018-10-05T00:45:59.249Z,8.06
2018-10-05T00:48:28.390Z,7.95
2018-10-05T00:50:57.652Z,7.89
2018-10-05T00:53:26.766Z,7.86
2018-10-05T00:55:55.919Z,7.81
2018-10-05T00:58:25.234Z,7.80
2018-10-05T01:00:54.426Z,7.82
2018-10-05T01:03:23.647Z,7.85
2018-10-05T01:05:53.157Z,7.82
2018-10-05T01:08:22.222Z,7.75
2018-10-05T01:10:51.303Z,7.72
2018-10-05T01:13:20.427Z,7.53
2018-10-05T01:15:49.451Z,7.45
2018-10-05T01:18:19.634Z,7.45
2018-10-05T01:20:49.803Z,7.29
2018-10-05T01:23:18.911Z,7.24
2018-10-05T01:25:48.105Z,7.22
2018-10-05T01:28:17.323Z,7.14
2018-10-05T01:30:46.503Z,7.06
2018-10-05T01:33:15.690Z,7.00
2018-10-05T01:35:44.906Z,7.00
2018-10-05T01:38:14.038Z,6.97
2018-10-05T01:40:43.369Z,6.96
2018-10-05T01:43:12.471Z,6.97
2018-10-05T01:45:41.738Z,6.90
2018-10-05T01:48:10.793Z,6.83
2018-10-05T01:50:39.847Z,6.84
2018-10-05T01:53:08.971Z,6.84
2018-10-05T01:55:37.986Z,6.90
2018-10-05T01:58:07.090Z,6.82
2018-10-05T02:00:36.210Z,6.79
2018-10-05T02:03:05.450Z,6.70
2018-10-05T02:05:34.742Z,6.74
2018-10-05T02:08:03.982Z,6.72
2018-10-05T02:10:32.974Z,6.66
2018-10-05T02:13:02.318Z,6.67
2018-10-05T02:15:31.491Z,6.65
2018-10-05T02:18:00.495Z,6.64
2018-10-05T02:20:30.610Z,6.60
2018-10-05T02:23:00.400Z,6.55
2018-10-05T02:25:29.435Z,6.55
2018-10-05T02:27:58.815Z,6.56
2018-10-05T02:30:28.000Z,6.60
2018-10-05T02:32:57.150Z,6.51
2018-10-05T02:35:26.289Z,6.52
2018-10-05T02:37:55.471Z,6.50
2018-10-05T02:40:24.560Z,6.43
2018-10-05T02:42:53.562Z,6.49
2018-10-05T02:45:22.615Z,6.47
2018-10-05T02:47:51.723Z,6.50
2018-10-05T02:50:21.219Z,6.48
2018-10-05T02:52:50.350Z,6.45
2018-10-05T02:55:19.446Z,6.39
2018-10-05T02:57:48.943Z,6.33
2018-10-05T03:00:28.926Z,6.23
2018-10-05T03:02:58.664Z,6.25
2018-10-05T03:05:27.770Z,6.24
2018-10-05T03:07:57.014Z,6.23
2018-10-05T03:10:26.188Z,6.25
2018-10-05T03:12:55.207Z,6.26
2018-10-05T03:15:24.279Z,6.25
2018-10-05T03:17:53.642Z,6.19
2018-10-05T03:20:22.652Z,6.18
2018-10-05T03:22:52.244Z,6.14
2018-10-05T03:25:21.587Z,6.04
2018-10-05T03:27:50.741Z,6.02
2018-10-05T03:30:19.933Z,6.08
2018-10-05T03:32:48.974Z,5.95
2018-10-05T03:35:18.074Z,5.90
2018-10-05T03:37:47.131Z,5.93
2018-10-05T03:40:16.351Z,6.03
2018-10-05T03:42:45.514Z,6.07
2018-10-05T03:45:14.579Z,6.11
2018-10-05T03:47:43.649Z,6.18
2018-10-05T03:50:13.300Z,6.22
2018-10-05T03:52:42.531Z,6.17
2018-10-05T03:55:11.777Z,6.13
2018-10-05T03:57:40.830Z,6.14
2018-10-05T04:00:09.964Z,6.14
2018-10-05T04:02:39.278Z,6.05
2018-10-05T04:05:08.424Z,5.98
2018-10-05T04:07:37.586Z,5.98
2018-10-05T04:10:07.078Z,6.01
2018-10-05T04:12:36.138Z,6.05
2018-10-05T04:15:05.345Z,6.09
2018-10-05T04:17:34.739Z,6.12
2018-10-05T04:20:03.922Z,6.09
2018-10-05T04:22:33.030Z,6.09
2018-10-05T04:25:02.416Z,6.10
2018-10-05T04:27:31.221Z,6.15
2018-10-05T04:30:00.389Z,6.13
2018-10-05T04:32:29.616Z,6.15
2018-10-05T04:34:58.886Z,6.15
2018-10-05T04:37:28.008Z,6.30
2018-10-05T04:39:57.423Z,6.62
2018-10-05T04:42:26.687Z,6.88
2018-10-05T04:44:55.818Z,7.20
2018-10-05T04:47:25.371Z,7.62
2018-10-05T04:49:54.393Z,8.04
2018-10-05T04:52:23.551Z,8.45
2018-10-05T04:54:52.945Z,8.91
2018-10-05T04:57:22.072Z,9.29
2018-10-05T04:59:51.387Z,9.55
2018-10-05T05:02:20.622Z,9.92
2018-10-05T05:04:49.736Z,10.34
2018-10-05T05:07:18.987Z,10.75
2018-10-05T05:09:48.366Z,11.30
2018-10-05T05:12:48.447Z,11.90
2018-10-05T05:15:17.467Z,12.41
2018-10-05T05:17:46.575Z,12.72
2018-10-05T05:20:15.707Z,12.88
2018-10-05T05:22:45.390Z,13.20
2018-10-05T05:25:14.511Z,13.51
2018-10-05T05:27:43.437Z,13.71
2018-10-05T05:30:12.959Z,13.92
2018-10-05T05:32:42.219Z,14.20
2018-10-05T05:35:11.531Z,14.48
2018-10-05T05:37:40.689Z,14.93
2018-10-05T05:40:09.980Z,15.21
2018-10-05T05:42:39.127Z,15.12
2018-10-05T05:45:08.779Z,15.32
2018-10-05T05:47:37.862Z,15.70
2018-10-05T05:50:06.951Z,15.68
2018-10-05T05:52:36.244Z,15.78
2018-10-05T05:55:05.394Z,15.82
2018-10-05T05:57:34.456Z,16.14
2018-10-05T06:00:04.120Z,16.39
2018-10-05T06:02:33.504Z,16.29
2018-10-05T06:05:02.563Z,16.81
2018-10-05T06:07:32.027Z,16.84
2018-10-05T06:10:01.216Z,16.98
2018-10-05T06:12:30.414Z,17.28
2018-10-05T06:14:59.904Z,17.58
2018-10-05T06:17:28.787Z,17.64
2018-10-05T06:19:57.799Z,18.15
2018-10-05T06:22:27.576Z,17.96
2018-10-05T06:24:56.511Z,17.55
2018-10-05T06:27:25.596Z,17.94
2018-10-05T06:29:55.335Z,17.73
2018-10-05T06:32:24.462Z,16.98
2018-10-05T06:34:53.571Z,17.53
2018-10-05T06:37:25.713Z,17.73
2018-10-05T06:39:54.830Z,17.31
2018-10-05T06:42:24.049Z,17.70
2018-10-05T06:44:53.617Z,17.93
2018-10-05T06:47:22.783Z,18.27
2018-10-05T06:49:52.016Z,18.48
2018-10-05T06:52:21.178Z,18.23
2018-10-05T06:54:50.286Z,17.85
2018-10-05T06:57:19.099Z,17.86
2018-10-05T06:59:48.584Z,17.98
2018-10-05T07:02:17.408Z,17.45
2018-10-05T07:04:46.687Z,18.02
2018-10-05T07:07:16.011Z,17.81
2018-10-05T07:09:45.381Z,17.65
2018-10-05T07:12:14.692Z,16.60
2018-10-05T07:14:44.264Z,15.66
2018-10-05T07:17:13.380Z,16.65
2018-10-05T07:19:42.463Z,17.34
2018-10-05T07:22:11.651Z,17.91
2018-10-05T07:24:40.834Z,17.23
2018-10-05T07:27:10.055Z,17.06
2018-10-05T07:29:39.453Z,17.40
2018-10-05T07:32:08.592Z,16.73
2018-10-05T07:34:37.680Z,17.10
2018-10-05T07:37:07.261Z,17.79
2018-10-05T07:39:36.454Z,17.68
2018-10-05T07:42:05.671Z,17.67
2018-10-05T07:44:34.922Z,18.01
2018-10-05T07:47:03.926Z,18.33
2018-10-05T07:49:33.023Z,18.60
2018-10-05T07:52:02.315Z,18.74
2018-10-05T07:54:31.554Z,18.85
2018-10-05T07:57:00.626Z,18.72
2018-10-05T07:59:30.062Z,18.55
2018-10-05T08:01:59.277Z,18.42
2018-10-05T08:04:28.384Z,17.82
2018-10-05T08:06:57.652Z,18.10
2018-10-05T08:09:26.838Z,18.17
2018-10-05T08:11:55.915Z,17.63
2018-10-05T08:14:25.394Z,17.87
2018-10-05T08:16:54.568Z,18.30
2018-10-05T08:19:23.675Z,18.44
2018-10-05T08:21:53.203Z,16.95
2018-10-05T08:24:22.271Z,17.25
2018-10-05T08:26:51.482Z,16.91
2018-10-05T08:29:21.096Z,16.55
2018-10-05T08:31:50.005Z,16.60
2018-10-05T08:34:19.212Z,16.56
2018-10-05T08:36:48.712Z,16.49
2018-10-05T08:39:17.985Z,16.35
2018-10-05T08:41:47.191Z,16.41
2018-10-05T08:44:16.594Z,16.41
2018-10-05T08:46:45.731Z,16.64
2018-10-05T08:49:14.991Z,16.63
2018-10-05T08:51:44.539Z,16.91
2018-10-05T08:54:13.569Z,16.83
2018-10-05T08:56:42.874Z,16.24
2018-10-05T08:59:12.450Z,16.71
2018-10-05T09:01:41.494Z,16.70
2018-10-05T09:04:10.550Z,16.89
2018-10-05T09:06:40.051Z,17.15
2018-10-05T09:09:09.276Z,17.11
2018-10-05T09:11:38.203Z,17.11
2018-10-05T09:14:07.831Z,17.12
2018-10-05T09:16:36.903Z,17.07
2018-10-05T09:19:06.085Z,16.89
2018-10-05T09:21:35.636Z,17.17
2018-10-05T09:24:04.928Z,17.01
2018-10-05T09:26:34.037Z,17.29
2018-10-05T09:29:03.463Z,17.47
2018-10-05T09:31:32.599Z,17.59
2018-10-05T09:34:01.797Z,17.52
2018-10-05T09:36:31.175Z,17.87
2018-10-05T09:39:00.487Z,17.79
2018-10-05T09:41:29.498Z,17.64
2018-10-05T09:43:58.914Z,17.89
2018-10-05T09:46:28.095Z,17.80
2018-10-05T09:48:57.241Z,17.91
2018-10-05T09:51:26.555Z,18.35
2018-10-05T09:53:55.698Z,18.60
2018-10-05T09:56:24.846Z,18.74
2018-10-05T09:58:54.186Z,19.05
2018-10-05T10:01:28.321Z,18.51
2018-10-05T10:03:57.542Z,18.51
2018-10-05T10:06:26.617Z,18.67
2018-10-05T10:08:55.807Z,18.86
2018-10-05T10:11:25.174Z,18.89
2018-10-05T10:13:54.358Z,18.85
2018-10-05T10:16:23.499Z,18.59
2018-10-05T10:18:52.983Z,18.83
2018-10-05T10:21:21.938Z,18.75
2018-10-05T10:23:51.092Z,18.66
2018-10-05T10:26:20.623Z,18.48
2018-10-05T10:28:49.882Z,18.76
2018-10-05T10:31:18.908Z,18.90
2018-10-05T10:33:48.541Z,18.97
2018-10-05T10:36:17.703Z,19.16
2018-10-05T10:38:46.997Z,19.19
2018-10-05T10:41:16.325Z,18.99
2018-10-05T10:43:45.391Z,19.07
2018-10-05T10:46:14.414Z,19.16
2018-10-05T10:48:43.607Z,19.09
2018-10-05T10:51:12.862Z,18.75
2018-10-05T10:53:42.120Z,18.72
2018-10-05T10:56:11.623Z,18.56
2018-10-05T10:58:40.767Z,18.76
2018-10-05T11:01:10.585Z,18.80
2018-10-05T11:03:39.813Z,18.93
2018-10-05T11:06:09.043Z,19.20
2018-10-05T11:08:38.178Z,18.99
2018-10-05T11:11:07.168Z,18.96
2018-10-05T11:13:36.326Z,19.08
2018-10-05T11:16:05.554Z,19.39
2018-10-05T11:18:34.705Z,19.40
2018-10-05T11:21:03.736Z,19.37
2018-10-05T11:23:32.918Z,19.32
2018-10-05T11:26:01.975Z,19.46
2018-10-05T11:28:31.022Z,19.50
2018-10-05T11:31:00.385Z,19.71
2018-10-05T11:33:29.483Z,19.90
2018-10-05T11:35:58.702Z,19.96
2018-10-05T11:38:28.052Z,20.22
2018-10-05T11:40:57.025Z,19.96
2018-10-05T11:43:26.198Z,19.76
2018-10-05T11:45:56.578Z,19.74
2018-10-05T11:48:26.140Z,20.09
2018-10-05T11:50:55.250Z,20.17
2018-10-05T11:53:24.479Z,20.12
2018-10-05T11:55:53.520Z,19.92
2018-10-05T11:58:22.790Z,19.95
2018-10-05T12:00:52.050Z,20.04
2018-10-05T12:03:21.279Z,19.99
2018-10-05T12:05:50.543Z,20.08
2018-10-05T12:08:20.055Z,19.94
2018-10-05T12:10:49.236Z,20.07
2018-10-05T12:13:18.379Z,20.07
2018-10-05T12:15:47.468Z,20.13
2018-10-05T12:18:16.632Z,20.05
2018-10-05T12:20:45.635Z,20.10
2018-10-05T12:23:15.046Z,20.09
2018-10-05T12:25:44.227Z,20.23
2018-10-05T12:28:13.161Z,20.32
2018-10-05T12:30:43.472Z,20.35
2018-10-05T12:33:12.719Z,20.40
2018-10-05T12:35:41.820Z,20.30
2018-10-05T12:38:14.340Z,20.17
2018-10-05T12:40:43.427Z,20.11
2018-10-05T12:43:12.533Z,20.05
2018-10-05T12:45:41.811Z,20.15
2018-10-05T12:48:10.983Z,20.06
2018-10-05T12:50:40.046Z,20.02
2018-10-05T12:53:09.354Z,19.93
2018-10-05T12:55:38.599Z,19.83
2018-10-05T12:58:07.811Z,19.75
2018-10-05T13:00:37.066Z,19.86
2018-10-05T13:03:06.115Z,19.81
2018-10-05T13:05:35.374Z,19.80
2018-10-05T13:08:04.899Z,19.98
2018-10-05T13:10:34.198Z,20.03
2018-10-05T13:13:03.449Z,20.02
2018-10-05T13:15:32.931Z,20.03
2018-10-05T13:18:02.163Z,19.99
2018-10-05T13:20:31.238Z,20.07
2018-10-05T13:23:00.634Z,20.13
2018-10-05T13:25:29.716Z,20.08
2018-10-05T13:27:58.819Z,19.98
2018-10-05T13:30:28.330Z,19.94
2018-10-05T13:32:57.523Z,19.89
2018-10-05T13:35:26.537Z,19.93
2018-10-05T13:37:55.855Z,19.98
2018-10-05T13:40:25.003Z,20.02
2018-10-05T13:42:54.714Z,19.97
2018-10-05T13:45:24.156Z,19.96
2018-10-05T13:47:53.243Z,19.84
2018-10-05T13:50:22.437Z,19.93
2018-10-05T13:52:52.115Z,19.94
2018-10-05T13:55:21.127Z,19.99
2018-10-05T13:57:50.263Z,20.05
2018-10-05T14:00:19.810Z,19.82
2018-10-05T14:02:49.097Z,19.82
2018-10-05T14:05:18.233Z,19.91
2018-10-05T14:07:47.702Z,19.87
2018-10-05T14:10:16.760Z,19.85
2018-10-05T14:12:45.763Z,19.78
2018-10-05T14:15:15.162Z,19.74
2018-10-05T14:17:44.433Z,19.69
2018-10-05T14:20:13.524Z,19.72
2018-10-05T14:22:42.787Z,19.76
2018-10-05T14:25:12.030Z,19.74
2018-10-05T14:27:41.274Z,19.69
2018-10-05T14:30:10.718Z,19.58
2018-10-05T14:32:39.912Z,19.59
2018-10-05T14:35:09.041Z,19.49
2018-10-05T14:37:38.655Z,19.56
2018-10-05T14:40:07.741Z,19.52
2018-10-05T14:42:37.055Z,19.43
2018-10-05T14:45:06.407Z,19.33
2018-10-05T14:47:35.620Z,19.27
2018-10-05T14:50:04.830Z,19.34
2018-10-05T14:52:34.175Z,19.30
2018-10-05T14:55:03.260Z,19.24
2018-10-05T14:57:32.461Z,19.15
2018-10-05T15:00:01.639Z,19.08
2018-10-05T15:02:30.825Z,19.02
2018-10-05T15:04:59.955Z,18.95
2018-10-05T15:07:29.330Z,18.93
2018-10-05T15:09:58.361Z,18.92
2018-10-05T15:12:27.520Z,18.85
2018-10-05T15:14:56.842Z,18.81
2018-10-05T15:17:25.975Z,18.74
2018-10-05T15:19:55.099Z,18.66
2018-10-05T15:22:24.439Z,18.60
2018-10-05T15:24:53.622Z,18.40
2018-10-05T15:27:22.804Z,18.51
2018-10-05T15:29:52.058Z,18.42
2018-10-05T15:32:21.301Z,18.31
2018-10-05T15:34:50.731Z,18.25
2018-10-05T15:37:20.204Z,18.18
2018-10-05T15:39:49.441Z,18.13
2018-10-05T15:42:18.726Z,17.98
2018-10-05T15:44:48.283Z,17.92
2018-10-05T15:47:17.888Z,17.85
2018-10-05T15:49:47.287Z,17.78
2018-10-05T15:52:16.726Z,17.68
2018-10-05T15:54:45.975Z,17.60
2018-10-05T15:57:15.168Z,17.54
2018-10-05T15:59:44.435Z,17.48
2018-10-05T16:02:13.675Z,17.45
2018-10-05T16:04:42.866Z,17.34
2018-10-05T16:07:12.126Z,17.29
2018-10-05T16:09:41.226Z,17.26
2018-10-05T16:12:10.260Z,17.18
2018-10-05T16:14:38.951Z,17.14
2018-10-05T16:17:08.275Z,17.11
2018-10-05T16:19:40.324Z,17.05
2018-10-05T16:22:10.280Z,17.00
2018-10-05T16:24:42.141Z,16.91
2018-10-05T16:27:12.419Z,16.87
2018-10-05T16:29:41.366Z,16.81
2018-10-05T16:32:11.146Z,16.72
2018-10-05T16:34:40.463Z,16.66
2018-10-05T16:37:09.625Z,16.62
2018-10-05T16:39:38.716Z,16.59
2018-10-05T16:42:08.727Z,16.53
2018-10-05T16:44:37.719Z,16.49
2018-10-05T16:47:07.050Z,16.48
2018-10-05T16:49:36.312Z,16.35
2018-10-05T16:52:05.217Z,16.39
2018-10-05T16:54:34.064Z,16.41
2018-10-05T16:57:03.448Z,16.35
2018-10-05T16:59:33.140Z,16.31
2018-10-05T17:02:02.041Z,16.29
2018-10-05T17:04:31.444Z,16.23
2018-10-05T17:07:00.099Z,16.23
2018-10-05T17:09:29.083Z,16.24
2018-10-05T17:11:57.943Z,16.21
2018-10-05T17:14:27.271Z,16.20
2018-10-05T17:16:56.276Z,16.19
2018-10-05T17:19:25.607Z,16.17
2018-10-05T17:21:54.458Z,16.05
2018-10-05T17:24:23.588Z,16.01
2018-10-05T17:26:52.624Z,15.93
2018-10-05T17:29:21.827Z,15.79
2018-10-05T17:31:50.840Z,15.73
2018-10-05T17:34:20.618Z,15.71
2018-10-05T17:36:49.435Z,15.65
2018-10-05T17:39:18.314Z,15.52
2018-10-05T17:41:47.374Z,15.46
2018-10-05T17:44:16.338Z,15.45
2018-10-05T17:46:45.975Z,15.35
2018-10-05T17:49:15.271Z,15.33
2018-10-05T17:51:44.334Z,15.37
2018-10-05T17:54:13.247Z,15.34
2018-10-05T17:56:42.476Z,15.24
2018-10-05T17:59:11.549Z,15.22
2018-10-05T18:01:40.561Z,15.16
2018-10-05T18:04:09.596Z,15.16
2018-10-05T18:06:38.651Z,15.13
2018-10-05T18:09:07.882Z,15.07
2018-10-05T18:11:36.875Z,15.03
2018-10-05T18:14:05.656Z,15.01
2018-10-05T18:16:34.835Z,14.96
2018-10-05T18:19:04.147Z,14.93
2018-10-05T18:21:33.282Z,14.92
2018-10-05T18:24:02.338Z,14.92
2018-10-05T18:26:31.535Z,14.89
2018-10-05T18:29:00.780Z,14.81
2018-10-05T18:31:29.813Z,14.75
2018-10-05T18:33:59.278Z,14.66
2018-10-05T18:36:28.362Z,14.62
2018-10-05T18:38:58.153Z,14.53
2018-10-05T18:41:27.781Z,14.50
2018-10-05T18:43:56.640Z,14.46
2018-10-05T18:46:25.806Z,14.46
2018-10-05T18:48:55.004Z,14.44
2018-10-05T18:51:24.104Z,14.38
2018-10-05T18:53:52.956Z,14.32
2018-10-05T18:56:33.095Z,14.26
2018-10-05T18:59:02.477Z,14.25
2018-10-05T19:01:31.350Z,14.12
2018-10-05T19:04:00.556Z,14.09
2018-10-05T19:06:29.466Z,14.05
2018-10-05T19:08:58.392Z,13.93
2018-10-05T19:11:27.643Z,13.91
2018-10-05T19:13:57.191Z,13.91
2018-10-05T19:16:26.863Z,13.84
2018-10-05T19:18:56.451Z,13.82
2018-10-05T19:21:30.002Z,13.74
2018-10-05T19:24:02.688Z,13.78
2018-10-05T19:26:33.344Z,13.74
2018-10-05T19:29:02.387Z,13.67
2018-10-05T19:31:32.067Z,13.61
2018-10-05T19:34:01.795Z,13.61
2018-10-05T19:36:30.545Z,13.54
2018-10-05T19:39:02.469Z,13.54
2018-10-05T19:41:31.565Z,13.49
2018-10-05T19:44:00.672Z,13.47
2018-10-05T19:46:30.398Z,13.48
2018-10-05T19:49:00.095Z,13.54
2018-10-05T19:51:30.104Z,13.52
2018-10-05T19:53:59.335Z,13.47
2018-10-05T19:56:28.307Z,13.41
2018-10-05T19:58:57.187Z,13.36
2018-10-05T20:01:26.434Z,13.38
2018-10-05T20:03:55.620Z,13.35
2018-10-05T20:06:24.588Z,13.30
2018-10-05T20:08:53.798Z,13.23
2018-10-05T20:11:23.056Z,13.15
2018-10-05T20:13:51.687Z,13.16
2018-10-05T20:16:21.432Z,13.09
2018-10-05T20:18:50.389Z,13.06
2018-10-05T20:21:19.267Z,13.04
2018-10-05T20:23:48.474Z,13.04
2018-10-05T20:26:17.243Z,12.93
2018-10-05T20:28:46.756Z,12.92
2018-10-05T20:31:15.976Z,12.93
2018-10-05T20:33:45.055Z,12.94
2018-10-05T20:36:14.280Z,12.94
2018-10-05T20:38:43.085Z,12.94
2018-10-05T20:41:12.038Z,12.91
2018-10-05T20:43:40.903Z,12.95
2018-10-05T20:46:09.655Z,12.97
2018-10-05T20:48:38.765Z,12.91
2018-10-05T20:51:08.435Z,12.93
2018-10-05T20:53:38.019Z,12.92
2018-10-05T20:56:07.203Z,12.92
2018-10-05T20:58:36.099Z,12.94
2018-10-05T21:01:05.467Z,12.91
2018-10-05T21:03:34.429Z,12.94
2018-10-05T21:06:03.491Z,12.88
2018-10-05T21:08:33.035Z,12.85
2018-10-05T21:11:02.467Z,12.77
2018-10-05T21:13:31.275Z,12.80
2018-10-05T21:16:00.286Z,12.76
2018-10-05T21:18:29.312Z,12.75
2018-10-05T21:20:58.099Z,12.71
2018-10-05T21:23:30.823Z,12.75
2018-10-05T21:26:00.197Z,12.72
2018-10-05T21:28:29.319Z,12.64
2018-10-05T21:30:58.167Z,12.62
2018-10-05T21:33:27.091Z,12.53
2018-10-05T21:35:56.375Z,12.50
2018-10-05T21:38:25.236Z,12.49
2018-10-05T21:40:54.057Z,12.50
2018-10-05T21:43:22.991Z,12.55
2018-10-05T21:45:51.726Z,12.51
2018-10-05T21:48:20.733Z,12.49
2018-10-05T21:50:50.092Z,12.53
2018-10-05T21:53:19.045Z,12.46
2018-10-05T21:55:48.120Z,12.42
2018-10-05T21:58:17.381Z,12.39
2018-10-05T22:00:46.419Z,12.35
2018-10-05T22:03:15.718Z,12.31
2018-10-05T22:05:45.129Z,12.33
2018-10-05T22:08:14.707Z,12.30
2018-10-05T22:10:43.814Z,12.32
2018-10-05T22:13:13.195Z,12.27
2018-10-05T22:15:42.207Z,12.26
2018-10-05T22:18:11.031Z,12.19
2018-10-05T22:20:40.131Z,12.11
2018-10-05T22:23:09.308Z,12.06
2018-10-05T22:25:38.302Z,12.02
2018-10-05T22:28:07.400Z,12.01
2018-10-05T22:30:36.192Z,11.98
2018-10-05T22:33:05.094Z,11.95
2018-10-05T22:35:34.895Z,11.92
2018-10-05T22:38:03.844Z,11.88
2018-10-05T22:40:33.712Z,11.92
2018-10-05T22:43:03.010Z,11.81
2018-10-05T22:45:32.107Z,11.74
2018-10-05T22:48:01.579Z,11.73
2018-10-05T22:50:30.444Z,11.77
2018-10-05T22:52:59.813Z,11.73
2018-10-05T22:55:28.654Z,11.65
2018-10-05T22:57:58.363Z,11.54
2018-10-05T23:00:27.595Z,11.51
2018-10-05T23:02:56.942Z,11.47
2018-10-05T23:05:25.872Z,11.49
2018-10-05T23:07:54.619Z,11.47
2018-10-05T23:10:24.109Z,11.47
2018-10-05T23:12:53.282Z,11.45
2018-10-05T23:15:22.340Z,11.48
2018-10-05T23:17:51.415Z,11.42
2018-10-05T23:20:20.324Z,11.38
2018-10-05T23:22:49.388Z,11.33
2018-10-05T23:25:18.752Z,11.20
2018-10-05T23:27:48.704Z,11.18
2018-10-05T23:30:18.095Z,11.23
2018-10-05T23:32:47.446Z,11.07
2018-10-05T23:35:17.398Z,11.08
2018-10-05T23:37:46.366Z,11.06
2018-10-05T23:40:15.520Z,10.95
2018-10-05T23:42:44.546Z,10.83
2018-10-05T23:45:13.507Z,10.84
2018-10-05T23:47:42.527Z,10.88
2018-10-05T23:50:11.525Z,10.89
2018-10-05T23:52:48.620Z,10.93
2018-10-05T23:55:17.653Z,10.90
2018-10-05T23:57:47.088Z,10.90
